sensor_id;sensor_type;location;lat;lon;timestamp;P1;durP1;ratioP1;P2;durP2;ratioP2
45128;SDS011;35512;56.312;101.728;2023-02-15T00:01:29;0.80;;;0.80;;
45128;SDS011;35512;56.312;101.728;2023-02-15T00:03:59;0.80;;;0.80;;
45128;SDS011;35512;56.312;101.728;2023-02-15T00:06:29;0.80;;;0.80;;
45128;SDS011;35512;56.312;101.728;2023-02-15T00:08:58;0.80;;;0.80;;
45128;SDS011;35512;56.312;101.728;2023-02-15T00:11:27;0.80;;;0.80;;
45128;SDS011;35512;56.312;101.728;2023-02-15T00:14:12;0.80;;;0.80;;
45128;SDS011;35512;56.312;101.728;2023-02-15T00:16:43;0.80;;;0.80;;
45128;SDS011;35512;56.312;101.728;2023-02-15T00:19:13;0.80;;;0.80;;
45128;SDS011;35512;56.312;101.728;2023-02-15T00:21:45;0.80;;;0.80;;
45128;SDS011;35512;56.312;101.728;2023-02-15T00:24:15;0.80;;;0.80;;
45128;SDS011;35512;56.312;101.728;2023-02-15T00:26:46;0.90;;;0.90;;
45128;SDS011;35512;56.312;101.728;2023-02-15T00:29:16;0.80;;;0.80;;
45128;SDS011;35512;56.312;101.728;2023-02-15T00:31:46;0.80;;;0.80;;
45128;SDS011;35512;56.312;101.728;2023-02-15T00:34:20;0.77;;;0.77;;
45128;SDS011;35512;56.312;101.728;2023-02-15T00:36:53;0.90;;;0.90;;
45128;SDS011;35512;56.312;101.728;2023-02-15T00:39:22;0.82;;;0.80;;
45128;SDS011;35512;56.312;101.728;2023-02-15T00:41:51;0.80;;;0.80;;
45128;SDS011;35512;56.312;101.728;2023-02-15T00:44:20;0.80;;;0.80;;
45128;SDS011;35512;56.312;101.728;2023-02-15T00:46:49;0.80;;;0.80;;
45128;SDS011;35512;56.312;101.728;2023-02-15T00:49:20;0.85;;;0.82;;
45128;SDS011;35512;56.312;101.728;2023-02-15T00:51:49;0.80;;;0.80;;
45128;SDS011;35512;56.312;101.728;2023-02-15T00:54:18;0.82;;;0.82;;
45128;SDS011;35512;56.312;101.728;2023-02-15T00:56:47;0.80;;;0.80;;
45128;SDS011;35512;56.312;101.728;2023-02-15T00:59:15;0.90;;;0.90;;
45128;SDS011;35512;56.312;101.728;2023-02-15T01:01:46;0.80;;;0.80;;
45128;SDS011;35512;56.312;101.728;2023-02-15T01:04:15;0.80;;;0.80;;
45128;SDS011;35512;56.312;101.728;2023-02-15T01:06:44;0.80;;;0.80;;
45128;SDS011;35512;56.312;101.728;2023-02-15T01:09:13;0.80;;;0.80;;
45128;SDS011;35512;56.312;101.728;2023-02-15T01:11:42;0.80;;;0.80;;
45128;SDS011;35512;56.312;101.728;2023-02-15T01:14:11;0.80;;;0.80;;
45128;SDS011;35512;56.312;101.728;2023-02-15T01:16:41;0.80;;;0.80;;
45128;SDS011;35512;56.312;101.728;2023-02-15T01:19:10;0.80;;;0.80;;
45128;SDS011;35512;56.312;101.728;2023-02-15T01:21:39;0.80;;;0.80;;
45128;SDS011;35512;56.312;101.728;2023-02-15T01:24:12;0.80;;;0.80;;
45128;SDS011;35512;56.312;101.728;2023-02-15T01:26:42;0.80;;;0.80;;
45128;SDS011;35512;56.312;101.728;2023-02-15T01:29:11;0.80;;;0.80;;
45128;SDS011;35512;56.312;101.728;2023-02-15T01:31:39;0.80;;;0.80;;
45128;SDS011;35512;56.312;101.728;2023-02-15T01:34:08;0.80;;;0.80;;
45128;SDS011;35512;56.312;101.728;2023-02-15T01:36:38;0.80;;;0.80;;
45128;SDS011;35512;56.312;101.728;2023-02-15T01:39:07;0.80;;;0.80;;
45128;SDS011;35512;56.312;101.728;2023-02-15T01:41:37;0.80;;;0.80;;
45128;SDS011;35512;56.312;101.728;2023-02-15T01:47:14;0.75;;;0.75;;
45128;SDS011;35512;56.312;101.728;2023-02-15T01:49:50;0.80;;;0.80;;
45128;SDS011;35512;56.312;101.728;2023-02-15T01:52:26;0.80;;;0.80;;
45128;SDS011;35512;56.312;101.728;2023-02-15T01:54:55;0.80;;;0.80;;
45128;SDS011;35512;56.312;101.728;2023-02-15T01:57:25;0.80;;;0.80;;
45128;SDS011;35512;56.312;101.728;2023-02-15T01:59:57;0.80;;;0.80;;
45128;SDS011;35512;56.312;101.728;2023-02-15T02:02:40;0.80;;;0.80;;
45128;SDS011;35512;56.312;101.728;2023-02-15T02:05:12;0.70;;;0.70;;
45128;SDS011;35512;56.312;101.728;2023-02-15T02:07:42;0.80;;;0.80;;
45128;SDS011;35512;56.312;101.728;2023-02-15T02:10:16;0.80;;;0.80;;
45128;SDS011;35512;56.312;101.728;2023-02-15T02:12:47;0.80;;;0.80;;
45128;SDS011;35512;56.312;101.728;2023-02-15T02:15:18;0.80;;;0.80;;
45128;SDS011;35512;56.312;101.728;2023-02-15T02:18:41;0.75;;;0.75;;
45128;SDS011;35512;56.312;101.728;2023-02-15T02:26:20;0.80;;;0.80;;
45128;SDS011;35512;56.312;101.728;2023-02-15T02:32:26;0.70;;;0.70;;
45128;SDS011;35512;56.312;101.728;2023-02-15T02:38:23;0.80;;;0.80;;
45128;SDS011;35512;56.312;101.728;2023-02-15T02:44:24;0.80;;;0.80;;
45128;SDS011;35512;56.312;101.728;2023-02-15T02:47:08;0.80;;;0.80;;
45128;SDS011;35512;56.312;101.728;2023-02-15T02:49:42;0.80;;;0.80;;
45128;SDS011;35512;56.312;101.728;2023-02-15T02:55:03;0.70;;;0.70;;
45128;SDS011;35512;56.312;101.728;2023-02-15T03:00:23;0.70;;;0.70;;
45128;SDS011;35512;56.312;101.728;2023-02-15T03:02:56;0.70;;;0.70;;
45128;SDS011;35512;56.312;101.728;2023-02-15T03:05:34;0.70;;;0.70;;
45128;SDS011;35512;56.312;101.728;2023-02-15T03:08:07;0.70;;;0.70;;
45128;SDS011;35512;56.312;101.728;2023-02-15T03:10:38;0.70;;;0.70;;
45128;SDS011;35512;56.312;101.728;2023-02-15T03:13:08;0.70;;;0.70;;
45128;SDS011;35512;56.312;101.728;2023-02-15T03:15:38;0.70;;;0.70;;
45128;SDS011;35512;56.312;101.728;2023-02-15T03:18:30;0.70;;;0.70;;
45128;SDS011;35512;56.312;101.728;2023-02-15T03:21:04;0.80;;;0.80;;
45128;SDS011;35512;56.312;101.728;2023-02-15T03:23:36;0.70;;;0.70;;
45128;SDS011;35512;56.312;101.728;2023-02-15T03:26:07;0.70;;;0.70;;
45128;SDS011;35512;56.312;101.728;2023-02-15T03:28:43;0.70;;;0.70;;
45128;SDS011;35512;56.312;101.728;2023-02-15T03:31:17;0.70;;;0.70;;
45128;SDS011;35512;56.312;101.728;2023-02-15T03:33:57;0.70;;;0.70;;
45128;SDS011;35512;56.312;101.728;2023-02-15T03:39:18;0.70;;;0.70;;
45128;SDS011;35512;56.312;101.728;2023-02-15T03:45:05;0.80;;;0.80;;
45128;SDS011;35512;56.312;101.728;2023-02-15T03:47:41;0.70;;;0.70;;
45128;SDS011;35512;56.312;101.728;2023-02-15T03:50:16;0.70;;;0.70;;
45128;SDS011;35512;56.312;101.728;2023-02-15T03:55:42;0.70;;;0.70;;
45128;SDS011;35512;56.312;101.728;2023-02-15T03:58:21;0.70;;;0.70;;
45128;SDS011;35512;56.312;101.728;2023-02-15T04:01:25;0.70;;;0.70;;
45128;SDS011;35512;56.312;101.728;2023-02-15T04:04:34;0.70;;;0.70;;
45128;SDS011;35512;56.312;101.728;2023-02-15T04:07:07;0.70;;;0.70;;
45128;SDS011;35512;56.312;101.728;2023-02-15T04:09:36;0.70;;;0.70;;
45128;SDS011;35512;56.312;101.728;2023-02-15T04:12:24;0.70;;;0.70;;
45128;SDS011;35512;56.312;101.728;2023-02-15T04:14:53;0.70;;;0.70;;
45128;SDS011;35512;56.312;101.728;2023-02-15T04:17:40;0.70;;;0.70;;
45128;SDS011;35512;56.312;101.728;2023-02-15T04:20:09;0.75;;;0.75;;
45128;SDS011;35512;56.312;101.728;2023-02-15T04:22:56;0.70;;;0.70;;
45128;SDS011;35512;56.312;101.728;2023-02-15T04:25:44;0.80;;;0.80;;
45128;SDS011;35512;56.312;101.728;2023-02-15T04:28:13;0.70;;;0.70;;
45128;SDS011;35512;56.312;101.728;2023-02-15T04:30:41;0.70;;;0.70;;
45128;SDS011;35512;56.312;101.728;2023-02-15T04:33:10;0.70;;;0.70;;
45128;SDS011;35512;56.312;101.728;2023-02-15T04:35:39;0.70;;;0.70;;
45128;SDS011;35512;56.312;101.728;2023-02-15T04:38:08;0.70;;;0.70;;
45128;SDS011;35512;56.312;101.728;2023-02-15T04:40:38;0.70;;;0.70;;
45128;SDS011;35512;56.312;101.728;2023-02-15T04:43:07;0.70;;;0.70;;
45128;SDS011;35512;56.312;101.728;2023-02-15T04:45:35;0.70;;;0.70;;
45128;SDS011;35512;56.312;101.728;2023-02-15T04:48:04;0.70;;;0.70;;
45128;SDS011;35512;56.312;101.728;2023-02-15T04:50:33;0.70;;;0.70;;
45128;SDS011;35512;56.312;101.728;2023-02-15T04:53:02;0.70;;;0.70;;
45128;SDS011;35512;56.312;101.728;2023-02-15T04:55:31;0.70;;;0.70;;
45128;SDS011;35512;56.312;101.728;2023-02-15T04:58:00;0.70;;;0.70;;
45128;SDS011;35512;56.312;101.728;2023-02-15T05:00:29;0.70;;;0.70;;
45128;SDS011;35512;56.312;101.728;2023-02-15T05:02:58;0.70;;;0.70;;
45128;SDS011;35512;56.312;101.728;2023-02-15T05:05:27;0.63;;;0.63;;
45128;SDS011;35512;56.312;101.728;2023-02-15T05:07:56;0.70;;;0.70;;
45128;SDS011;35512;56.312;101.728;2023-02-15T05:10:25;0.70;;;0.70;;
45128;SDS011;35512;56.312;101.728;2023-02-15T05:12:54;0.60;;;0.60;;
45128;SDS011;35512;56.312;101.728;2023-02-15T05:15:23;0.60;;;0.60;;
45128;SDS011;35512;56.312;101.728;2023-02-15T05:17:51;0.70;;;0.70;;
45128;SDS011;35512;56.312;101.728;2023-02-15T05:20:20;0.70;;;0.70;;
45128;SDS011;35512;56.312;101.728;2023-02-15T05:22:52;0.70;;;0.70;;
45128;SDS011;35512;56.312;101.728;2023-02-15T05:25:23;0.70;;;0.70;;
45128;SDS011;35512;56.312;101.728;2023-02-15T05:28:10;0.70;;;0.70;;
45128;SDS011;35512;56.312;101.728;2023-02-15T05:31:13;0.70;;;0.70;;
45128;SDS011;35512;56.312;101.728;2023-02-15T05:33:45;0.70;;;0.70;;
45128;SDS011;35512;56.312;101.728;2023-02-15T05:36:13;0.70;;;0.70;;
45128;SDS011;35512;56.312;101.728;2023-02-15T05:38:42;0.70;;;0.70;;
45128;SDS011;35512;56.312;101.728;2023-02-15T05:41:11;0.70;;;0.70;;
45128;SDS011;35512;56.312;101.728;2023-02-15T05:43:41;0.70;;;0.70;;
45128;SDS011;35512;56.312;101.728;2023-02-15T05:46:11;0.70;;;0.70;;
45128;SDS011;35512;56.312;101.728;2023-02-15T05:48:40;0.70;;;0.70;;
45128;SDS011;35512;56.312;101.728;2023-02-15T05:51:10;0.70;;;0.70;;
45128;SDS011;35512;56.312;101.728;2023-02-15T05:53:44;0.70;;;0.70;;
45128;SDS011;35512;56.312;101.728;2023-02-15T05:56:13;0.70;;;0.70;;
45128;SDS011;35512;56.312;101.728;2023-02-15T05:58:42;0.70;;;0.70;;
45128;SDS011;35512;56.312;101.728;2023-02-15T06:01:13;0.70;;;0.70;;
45128;SDS011;35512;56.312;101.728;2023-02-15T06:03:47;0.60;;;0.60;;
45128;SDS011;35512;56.312;101.728;2023-02-15T06:06:16;0.65;;;0.65;;
45128;SDS011;35512;56.312;101.728;2023-02-15T06:08:45;0.70;;;0.70;;
45128;SDS011;35512;56.312;101.728;2023-02-15T06:11:14;0.70;;;0.70;;
45128;SDS011;35512;56.312;101.728;2023-02-15T06:13:43;0.70;;;0.70;;
45128;SDS011;35512;56.312;101.728;2023-02-15T06:16:12;0.70;;;0.70;;
45128;SDS011;35512;56.312;101.728;2023-02-15T06:18:41;0.60;;;0.60;;
45128;SDS011;35512;56.312;101.728;2023-02-15T06:21:10;0.60;;;0.60;;
45128;SDS011;35512;56.312;101.728;2023-02-15T06:23:39;0.60;;;0.60;;
45128;SDS011;35512;56.312;101.728;2023-02-15T06:26:08;0.60;;;0.60;;
45128;SDS011;35512;56.312;101.728;2023-02-15T06:28:36;0.55;;;0.55;;
45128;SDS011;35512;56.312;101.728;2023-02-15T06:31:05;0.60;;;0.60;;
45128;SDS011;35512;56.312;101.728;2023-02-15T06:33:34;0.60;;;0.60;;
45128;SDS011;35512;56.312;101.728;2023-02-15T06:36:03;0.60;;;0.60;;
45128;SDS011;35512;56.312;101.728;2023-02-15T06:38:32;0.60;;;0.60;;
45128;SDS011;35512;56.312;101.728;2023-02-15T06:41:01;0.70;;;0.70;;
45128;SDS011;35512;56.312;101.728;2023-02-15T06:43:30;0.60;;;0.60;;
45128;SDS011;35512;56.312;101.728;2023-02-15T06:45:59;0.50;;;0.50;;
45128;SDS011;35512;56.312;101.728;2023-02-15T06:48:29;0.50;;;0.50;;
45128;SDS011;35512;56.312;101.728;2023-02-15T06:50:58;0.60;;;0.60;;
45128;SDS011;35512;56.312;101.728;2023-02-15T06:53:27;0.50;;;0.50;;
45128;SDS011;35512;56.312;101.728;2023-02-15T06:56:02;0.60;;;0.60;;
45128;SDS011;35512;56.312;101.728;2023-02-15T06:58:42;0.60;;;0.60;;
45128;SDS011;35512;56.312;101.728;2023-02-15T07:01:14;0.60;;;0.60;;
45128;SDS011;35512;56.312;101.728;2023-02-15T07:03:43;0.60;;;0.60;;
45128;SDS011;35512;56.312;101.728;2023-02-15T07:06:12;0.57;;;0.57;;
45128;SDS011;35512;56.312;101.728;2023-02-15T07:08:41;0.60;;;0.60;;
45128;SDS011;35512;56.312;101.728;2023-02-15T07:11:10;0.70;;;0.70;;
45128;SDS011;35512;56.312;101.728;2023-02-15T07:13:57;0.60;;;0.60;;
45128;SDS011;35512;56.312;101.728;2023-02-15T07:16:26;0.60;;;0.60;;
45128;SDS011;35512;56.312;101.728;2023-02-15T07:18:56;0.60;;;0.60;;
45128;SDS011;35512;56.312;101.728;2023-02-15T07:21:25;0.60;;;0.60;;
45128;SDS011;35512;56.312;101.728;2023-02-15T07:23:56;0.60;;;0.60;;
45128;SDS011;35512;56.312;101.728;2023-02-15T07:26:26;0.70;;;0.70;;
45128;SDS011;35512;56.312;101.728;2023-02-15T07:28:55;0.60;;;0.60;;
45128;SDS011;35512;56.312;101.728;2023-02-15T07:31:23;0.60;;;0.60;;
45128;SDS011;35512;56.312;101.728;2023-02-15T07:33:52;0.60;;;0.60;;
45128;SDS011;35512;56.312;101.728;2023-02-15T07:36:22;0.60;;;0.60;;
45128;SDS011;35512;56.312;101.728;2023-02-15T07:38:50;0.60;;;0.60;;
45128;SDS011;35512;56.312;101.728;2023-02-15T07:41:19;0.60;;;0.60;;
45128;SDS011;35512;56.312;101.728;2023-02-15T07:43:48;0.50;;;0.50;;
45128;SDS011;35512;56.312;101.728;2023-02-15T07:46:17;0.60;;;0.60;;
45128;SDS011;35512;56.312;101.728;2023-02-15T07:48:47;0.50;;;0.50;;
45128;SDS011;35512;56.312;101.728;2023-02-15T07:51:16;0.60;;;0.60;;
45128;SDS011;35512;56.312;101.728;2023-02-15T07:53:45;0.50;;;0.50;;
45128;SDS011;35512;56.312;101.728;2023-02-15T07:56:15;0.60;;;0.60;;
45128;SDS011;35512;56.312;101.728;2023-02-15T07:58:44;0.50;;;0.50;;
45128;SDS011;35512;56.312;101.728;2023-02-15T08:01:20;0.60;;;0.60;;
45128;SDS011;35512;56.312;101.728;2023-02-15T08:03:52;0.60;;;0.60;;
45128;SDS011;35512;56.312;101.728;2023-02-15T08:06:23;0.60;;;0.60;;
45128;SDS011;35512;56.312;101.728;2023-02-15T08:08:55;0.60;;;0.60;;
45128;SDS011;35512;56.312;101.728;2023-02-15T08:11:28;0.70;;;0.70;;
45128;SDS011;35512;56.312;101.728;2023-02-15T08:19:22;0.63;;;0.63;;
45128;SDS011;35512;56.312;101.728;2023-02-15T08:22:00;0.60;;;0.60;;
45128;SDS011;35512;56.312;101.728;2023-02-15T08:24:35;0.60;;;0.60;;
45128;SDS011;35512;56.312;101.728;2023-02-15T08:27:06;0.60;;;0.60;;
45128;SDS011;35512;56.312;101.728;2023-02-15T08:29:37;0.60;;;0.60;;
45128;SDS011;35512;56.312;101.728;2023-02-15T08:32:08;0.60;;;0.60;;
45128;SDS011;35512;56.312;101.728;2023-02-15T08:34:39;0.60;;;0.60;;
45128;SDS011;35512;56.312;101.728;2023-02-15T08:37:09;0.60;;;0.60;;
45128;SDS011;35512;56.312;101.728;2023-02-15T08:39:38;0.60;;;0.60;;
45128;SDS011;35512;56.312;101.728;2023-02-15T08:42:07;0.65;;;0.65;;
45128;SDS011;35512;56.312;101.728;2023-02-15T08:44:36;0.68;;;0.68;;
45128;SDS011;35512;56.312;101.728;2023-02-15T08:47:05;0.70;;;0.70;;
45128;SDS011;35512;56.312;101.728;2023-02-15T08:49:34;0.70;;;0.70;;
45128;SDS011;35512;56.312;101.728;2023-02-15T08:52:03;0.70;;;0.70;;
45128;SDS011;35512;56.312;101.728;2023-02-15T08:54:32;0.70;;;0.70;;
45128;SDS011;35512;56.312;101.728;2023-02-15T08:57:01;0.70;;;0.70;;
45128;SDS011;35512;56.312;101.728;2023-02-15T08:59:30;0.70;;;0.70;;
45128;SDS011;35512;56.312;101.728;2023-02-15T09:01:59;0.70;;;0.70;;
45128;SDS011;35512;56.312;101.728;2023-02-15T09:04:31;0.70;;;0.70;;
45128;SDS011;35512;56.312;101.728;2023-02-15T09:07:00;0.70;;;0.70;;
45128;SDS011;35512;56.312;101.728;2023-02-15T09:09:28;0.70;;;0.70;;
45128;SDS011;35512;56.312;101.728;2023-02-15T09:11:59;0.70;;;0.70;;
45128;SDS011;35512;56.312;101.728;2023-02-15T09:14:28;0.70;;;0.70;;
45128;SDS011;35512;56.312;101.728;2023-02-15T09:16:57;0.70;;;0.70;;
45128;SDS011;35512;56.312;101.728;2023-02-15T09:19:26;0.70;;;0.70;;
45128;SDS011;35512;56.312;101.728;2023-02-15T09:21:55;0.70;;;0.70;;
45128;SDS011;35512;56.312;101.728;2023-02-15T09:24:24;0.70;;;0.70;;
45128;SDS011;35512;56.312;101.728;2023-02-15T09:26:52;0.70;;;0.70;;
45128;SDS011;35512;56.312;101.728;2023-02-15T09:29:21;0.70;;;0.70;;
45128;SDS011;35512;56.312;101.728;2023-02-15T09:31:50;0.70;;;0.70;;
45128;SDS011;35512;56.312;101.728;2023-02-15T09:34:21;0.70;;;0.70;;
45128;SDS011;35512;56.312;101.728;2023-02-15T09:36:51;0.70;;;0.70;;
45128;SDS011;35512;56.312;101.728;2023-02-15T09:39:21;0.68;;;0.68;;
45128;SDS011;35512;56.312;101.728;2023-02-15T09:50:38;0.80;;;0.80;;
45128;SDS011;35512;56.312;101.728;2023-02-15T09:56:42;0.70;;;0.70;;
45128;SDS011;35512;56.312;101.728;2023-02-15T09:59:54;0.70;;;0.70;;
45128;SDS011;35512;56.312;101.728;2023-02-15T10:08:09;0.80;;;0.80;;
45128;SDS011;35512;56.312;101.728;2023-02-15T10:11:16;0.70;;;0.70;;
45128;SDS011;35512;56.312;101.728;2023-02-15T10:25:16;0.80;;;0.80;;
45128;SDS011;35512;56.312;101.728;2023-02-15T10:28:03;0.75;;;0.75;;
45128;SDS011;35512;56.312;101.728;2023-02-15T10:39:17;0.75;;;0.75;;
45128;SDS011;35512;56.312;101.728;2023-02-15T10:53:32;0.80;;;0.80;;
45128;SDS011;35512;56.312;101.728;2023-02-15T11:07:02;0.80;;;0.80;;
45128;SDS011;35512;56.312;101.728;2023-02-15T11:09:38;0.80;;;0.80;;
45128;SDS011;35512;56.312;101.728;2023-02-15T11:12:16;0.80;;;0.80;;
45128;SDS011;35512;56.312;101.728;2023-02-15T11:14:51;0.80;;;0.80;;
45128;SDS011;35512;56.312;101.728;2023-02-15T11:17:45;0.80;;;0.80;;
45128;SDS011;35512;56.312;101.728;2023-02-15T11:20:23;0.80;;;0.80;;
45128;SDS011;35512;56.312;101.728;2023-02-15T11:22:58;0.80;;;0.80;;
45128;SDS011;35512;56.312;101.728;2023-02-15T11:25:30;0.75;;;0.75;;
45128;SDS011;35512;56.312;101.728;2023-02-15T11:28:03;0.80;;;0.80;;
45128;SDS011;35512;56.312;101.728;2023-02-15T11:30:46;0.70;;;0.70;;
45128;SDS011;35512;56.312;101.728;2023-02-15T11:33:34;0.80;;;0.80;;
45128;SDS011;35512;56.312;101.728;2023-02-15T11:36:31;0.80;;;0.80;;
45128;SDS011;35512;56.312;101.728;2023-02-15T11:39:02;0.80;;;0.80;;
45128;SDS011;35512;56.312;101.728;2023-02-15T11:41:45;0.80;;;0.80;;
45128;SDS011;35512;56.312;101.728;2023-02-15T11:47:20;0.80;;;0.80;;
45128;SDS011;35512;56.312;101.728;2023-02-15T11:49:49;0.80;;;0.80;;
45128;SDS011;35512;56.312;101.728;2023-02-15T11:52:18;0.80;;;0.80;;
45128;SDS011;35512;56.312;101.728;2023-02-15T11:54:48;0.80;;;0.80;;
45128;SDS011;35512;56.312;101.728;2023-02-15T11:57:22;0.70;;;0.70;;
45128;SDS011;35512;56.312;101.728;2023-02-15T12:00:44;0.80;;;0.80;;
45128;SDS011;35512;56.312;101.728;2023-02-15T12:06:02;0.80;;;0.80;;
45128;SDS011;35512;56.312;101.728;2023-02-15T12:08:40;0.80;;;0.80;;
45128;SDS011;35512;56.312;101.728;2023-02-15T12:11:19;0.80;;;0.80;;
45128;SDS011;35512;56.312;101.728;2023-02-15T12:13:58;0.80;;;0.80;;
45128;SDS011;35512;56.312;101.728;2023-02-15T12:16:29;0.70;;;0.70;;
45128;SDS011;35512;56.312;101.728;2023-02-15T12:22:01;0.80;;;0.80;;
45128;SDS011;35512;56.312;101.728;2023-02-15T12:24:32;0.80;;;0.80;;
45128;SDS011;35512;56.312;101.728;2023-02-15T12:27:13;0.80;;;0.80;;
45128;SDS011;35512;56.312;101.728;2023-02-15T12:29:49;0.70;;;0.70;;
45128;SDS011;35512;56.312;101.728;2023-02-15T12:32:25;0.80;;;0.80;;
45128;SDS011;35512;56.312;101.728;2023-02-15T12:40:57;0.80;;;0.80;;
45128;SDS011;35512;56.312;101.728;2023-02-15T12:43:35;0.80;;;0.80;;
45128;SDS011;35512;56.312;101.728;2023-02-15T12:51:56;0.80;;;0.80;;
45128;SDS011;35512;56.312;101.728;2023-02-15T12:57:12;0.80;;;0.80;;
45128;SDS011;35512;56.312;101.728;2023-02-15T12:59:52;0.80;;;0.80;;
45128;SDS011;35512;56.312;101.728;2023-02-15T13:02:25;0.80;;;0.80;;
45128;SDS011;35512;56.312;101.728;2023-02-15T13:05:03;0.70;;;0.70;;
45128;SDS011;35512;56.312;101.728;2023-02-15T13:07:36;0.80;;;0.80;;
45128;SDS011;35512;56.312;101.728;2023-02-15T13:10:17;0.70;;;0.70;;
45128;SDS011;35512;56.312;101.728;2023-02-15T13:12:51;0.80;;;0.80;;
45128;SDS011;35512;56.312;101.728;2023-02-15T13:15:40;0.80;;;0.80;;
45128;SDS011;35512;56.312;101.728;2023-02-15T13:18:14;0.70;;;0.70;;
45128;SDS011;35512;56.312;101.728;2023-02-15T13:20:46;0.80;;;0.80;;
45128;SDS011;35512;56.312;101.728;2023-02-15T13:23:25;0.80;;;0.80;;
45128;SDS011;35512;56.312;101.728;2023-02-15T13:25:57;0.80;;;0.80;;
45128;SDS011;35512;56.312;101.728;2023-02-15T13:28:41;0.80;;;0.80;;
45128;SDS011;35512;56.312;101.728;2023-02-15T13:31:18;0.80;;;0.80;;
45128;SDS011;35512;56.312;101.728;2023-02-15T13:33:53;0.80;;;0.80;;
45128;SDS011;35512;56.312;101.728;2023-02-15T13:36:29;0.80;;;0.80;;
45128;SDS011;35512;56.312;101.728;2023-02-15T13:39:23;0.80;;;0.80;;
45128;SDS011;35512;56.312;101.728;2023-02-15T13:55:30;0.80;;;0.80;;
45128;SDS011;35512;56.312;101.728;2023-02-15T14:07:06;0.85;;;0.85;;
45128;SDS011;35512;56.312;101.728;2023-02-15T14:18:42;0.80;;;0.80;;
45128;SDS011;35512;56.312;101.728;2023-02-15T14:21:40;0.77;;;0.77;;
45128;SDS011;35512;56.312;101.728;2023-02-15T14:24:22;0.82;;;0.82;;
45128;SDS011;35512;56.312;101.728;2023-02-15T14:32:19;0.80;;;0.80;;
45128;SDS011;35512;56.312;101.728;2023-02-15T14:35:00;0.90;;;0.90;;
45128;SDS011;35512;56.312;101.728;2023-02-15T14:46:23;0.80;;;0.80;;
45128;SDS011;35512;56.312;101.728;2023-02-15T14:48:59;0.90;;;0.90;;
45128;SDS011;35512;56.312;101.728;2023-02-15T15:04:41;1.00;;;0.90;;
45128;SDS011;35512;56.312;101.728;2023-02-15T15:12:46;0.80;;;0.80;;
45128;SDS011;35512;56.312;101.728;2023-02-15T15:20:38;1.00;;;0.90;;
45128;SDS011;35512;56.312;101.728;2023-02-15T15:36:37;0.80;;;0.80;;
45128;SDS011;35512;56.312;101.728;2023-02-15T15:42:13;0.90;;;0.90;;
45128;SDS011;35512;56.312;101.728;2023-02-15T15:45:08;0.80;;;0.80;;
45128;SDS011;35512;56.312;101.728;2023-02-15T15:47:49;0.80;;;0.80;;
45128;SDS011;35512;56.312;101.728;2023-02-15T15:50:34;0.80;;;0.80;;
45128;SDS011;35512;56.312;101.728;2023-02-15T15:53:02;0.80;;;0.80;;
45128;SDS011;35512;56.312;101.728;2023-02-15T15:55:33;0.80;;;0.80;;
45128;SDS011;35512;56.312;101.728;2023-02-15T15:58:03;0.90;;;0.90;;
45128;SDS011;35512;56.312;101.728;2023-02-15T16:03:05;0.80;;;0.80;;
45128;SDS011;35512;56.312;101.728;2023-02-15T16:05:49;0.80;;;0.80;;
45128;SDS011;35512;56.312;101.728;2023-02-15T16:08:31;0.80;;;0.80;;
45128;SDS011;35512;56.312;101.728;2023-02-15T16:11:22;0.80;;;0.80;;
45128;SDS011;35512;56.312;101.728;2023-02-15T16:13:57;0.90;;;0.90;;
45128;SDS011;35512;56.312;101.728;2023-02-15T16:16:27;0.80;;;0.80;;
45128;SDS011;35512;56.312;101.728;2023-02-15T16:18:57;0.80;;;0.80;;
45128;SDS011;35512;56.312;101.728;2023-02-15T16:21:31;0.80;;;0.80;;
45128;SDS011;35512;56.312;101.728;2023-02-15T16:24:12;0.90;;;0.90;;
45128;SDS011;35512;56.312;101.728;2023-02-15T16:29:44;0.80;;;0.80;;
45128;SDS011;35512;56.312;101.728;2023-02-15T16:34:58;0.80;;;0.80;;
45128;SDS011;35512;56.312;101.728;2023-02-15T16:37:33;0.80;;;0.80;;
45128;SDS011;35512;56.312;101.728;2023-02-15T16:40:03;0.80;;;0.80;;
45128;SDS011;35512;56.312;101.728;2023-02-15T16:42:33;0.80;;;0.80;;
45128;SDS011;35512;56.312;101.728;2023-02-15T16:45:12;0.80;;;0.80;;
45128;SDS011;35512;56.312;101.728;2023-02-15T16:47:46;0.80;;;0.80;;
45128;SDS011;35512;56.312;101.728;2023-02-15T16:50:27;0.80;;;0.80;;
45128;SDS011;35512;56.312;101.728;2023-02-15T16:53:00;0.80;;;0.80;;
45128;SDS011;35512;56.312;101.728;2023-02-15T16:55:40;0.80;;;0.80;;
45128;SDS011;35512;56.312;101.728;2023-02-15T16:58:14;0.80;;;0.80;;
45128;SDS011;35512;56.312;101.728;2023-02-15T17:00:45;1.00;;;0.90;;
45128;SDS011;35512;56.312;101.728;2023-02-15T17:05:46;0.80;;;0.80;;
45128;SDS011;35512;56.312;101.728;2023-02-15T17:08:33;0.80;;;0.80;;
45128;SDS011;35512;56.312;101.728;2023-02-15T17:11:11;0.80;;;0.80;;
45128;SDS011;35512;56.312;101.728;2023-02-15T17:16:40;0.98;;;0.90;;
45128;SDS011;35512;56.312;101.728;2023-02-15T17:19:24;0.80;;;0.80;;
45128;SDS011;35512;56.312;101.728;2023-02-15T17:21:57;0.80;;;0.80;;
45128;SDS011;35512;56.312;101.728;2023-02-15T17:24:34;0.80;;;0.80;;
45128;SDS011;35512;56.312;101.728;2023-02-15T17:30:00;0.80;;;0.80;;
45128;SDS011;35512;56.312;101.728;2023-02-15T17:32:37;0.80;;;0.80;;
45128;SDS011;35512;56.312;101.728;2023-02-15T17:35:22;0.80;;;0.80;;
45128;SDS011;35512;56.312;101.728;2023-02-15T17:40:48;0.80;;;0.80;;
45128;SDS011;35512;56.312;101.728;2023-02-15T17:43:17;0.80;;;0.80;;
45128;SDS011;35512;56.312;101.728;2023-02-15T17:45:49;0.80;;;0.80;;
45128;SDS011;35512;56.312;101.728;2023-02-15T17:48:21;0.80;;;0.80;;
45128;SDS011;35512;56.312;101.728;2023-02-15T17:51:02;0.80;;;0.80;;
45128;SDS011;35512;56.312;101.728;2023-02-15T17:53:33;0.80;;;0.80;;
45128;SDS011;35512;56.312;101.728;2023-02-15T17:56:02;0.90;;;0.90;;
45128;SDS011;35512;56.312;101.728;2023-02-15T17:58:40;0.80;;;0.80;;
45128;SDS011;35512;56.312;101.728;2023-02-15T18:01:16;0.80;;;0.80;;
45128;SDS011;35512;56.312;101.728;2023-02-15T18:04:11;0.80;;;0.80;;
45128;SDS011;35512;56.312;101.728;2023-02-15T18:07:00;0.80;;;0.80;;
45128;SDS011;35512;56.312;101.728;2023-02-15T18:09:47;0.80;;;0.80;;
45128;SDS011;35512;56.312;101.728;2023-02-15T18:12:35;0.80;;;0.80;;
45128;SDS011;35512;56.312;101.728;2023-02-15T18:15:06;0.80;;;0.80;;
45128;SDS011;35512;56.312;101.728;2023-02-15T18:17:43;0.80;;;0.80;;
45128;SDS011;35512;56.312;101.728;2023-02-15T18:22:45;0.80;;;0.80;;
45128;SDS011;35512;56.312;101.728;2023-02-15T18:25:15;0.80;;;0.80;;
45128;SDS011;35512;56.312;101.728;2023-02-15T18:27:46;0.88;;;0.88;;
45128;SDS011;35512;56.312;101.728;2023-02-15T18:30:20;0.80;;;0.80;;
45128;SDS011;35512;56.312;101.728;2023-02-15T18:32:51;0.80;;;0.80;;
45128;SDS011;35512;56.312;101.728;2023-02-15T18:35:25;0.80;;;0.80;;
45128;SDS011;35512;56.312;101.728;2023-02-15T18:37:57;0.90;;;0.90;;
45128;SDS011;35512;56.312;101.728;2023-02-15T18:40:28;0.88;;;0.88;;
45128;SDS011;35512;56.312;101.728;2023-02-15T18:42:57;0.98;;;0.90;;
45128;SDS011;35512;56.312;101.728;2023-02-15T18:45:27;0.90;;;0.90;;
45128;SDS011;35512;56.312;101.728;2023-02-15T18:48:00;0.95;;;0.90;;
45128;SDS011;35512;56.312;101.728;2023-02-15T18:50:30;0.82;;;0.82;;